Terminal Aerodrome Forecast
Issued by NWS Melbourne, FL

Home | Current Version | Previous Version | Text Only | Print | Product List | Glossary On
Versions: 1 2 3 4 5 6 7 8 9 10 11 12 13
000
FTUS42 KMLB 252330
TAFMLB
TAF
KMLB 252330Z 2600/2624 10014G21KT P6SM SCT020 SCT250
     FM260300 11008KT P6SM SCT020
     FM261400 11012KT P6SM FEW025
     FM261700 10015G22KT P6SM SCT030 BKN050=

USA.gov is the U.S. government's official web portal to all federal, state and local government web resources and services.